Sao Joao do Caiua, Brazil
Current Conditions -  °F | °C
As of 11:45 PM on Thursday 23 Oct 2014 (Local Time) from SBMG Reporting Station
Clear Clear  
Wind Chill: 79°   Ceiling: Unl
Heat Index: 81°   Visibility: 6mi
Dew Point: 64°   Wind: 8mph
Humidity: 61%   Direction: 90°E
Pressure: 29.94"   Gusts: NA
Location:  22.85°S, 52.34°W
Report Text: SBMG 240145Z 09007KT CAVOK 26/18 Q1014
Loading
Personal Weather Stations






























Interactive Weather Map
Tropical Storm Tracking
New forecast layout! Learn more

10-Day Weather Forecast

Advertisements
Track Severe Weather on mobile